Rimrock, Arizona
Current Conditions -  °F | °C
As of 10:35 PM on Friday 19 Dec 2014 (Local Time) from KSEZ Reporting Station
Clear Clear  
Wind Chill: 32°   Ceiling: Unl
Heat Index: 39°   Visibility: 10mi
Dew Point: 32°   Wind: 12mph
Humidity: 75%   Direction: 40°NE
Pressure: 30.19"   Gusts: NA
Location:  34.63°N, 111.78°W
Report Text: KSEZ 200535Z AUTO 04010KT 10SM CLR 04/00 A3019 RMK AO2
Loading
Personal Weather Stations






























Interactive Weather Map New forecast layout! Learn more

10-Day Weather Forecast

Advertisements
Track Severe Weather on mobile